Portada
METAR-TAF:

METAR-TAF

Aeroports :

Rajahmundry, Índia

latitud: 17-06-37N, longitud: 81-49-06E, altitud: 46 m

Observació

L'informe es va fer fa 19 minuts, a les 05:00 UTC
Vent 7 kt del Nord-Est
Temperatura 28°C
Humitat 66%
Pressió 1016 hPa
Visibilitat: 3000 m
Escasses núvols a una alçada de 2000 ft
calitja

METAR: VORY 140500Z 04007KT 3000 HZ FEW020 28/21 Q1016 NOSIG

Hora: 10:49 (05:19 UTC)


TAF: manca

Observacions i pronòstics meteorològics de més de 4000 aeroports (METAR i TAF).

Les estacions disponibles són els punts grocs i vermells al mapa.

Posi el ratolí al punt desitjat per veure el nom de l'estació.

Feu clic per veure les observacions i els pronòstics meteorològics.

Per canviar el mapa: feu clic els botons verds amb una creu de color negre per apropar; al botó verd amb un guió per allunyar la imatge; o en les fletxes verdes per a mapes adjacents.


METAR-TAF: